Time;durP1;ratioP1;P1;durP2;ratioP2;P2;SDS_P1;SDS_P2;PMS_P1;PMS_P2;Temp;Humidity;BMP_temperature;BMP_pressure;BME280_temperature;BME280_humidity;BME280_pressure;Samples;Min_cycle;Max_cycle;Signal;HPM_P1;HPM_P2
2023/06/09 00:01:14;;;;;;;10.07;9.07;;;16.40;99.90;;;;;;10226722;28;20594;-71
2023/06/09 00:06:16;;;;;;;11.27;9.90;;;16.40;99.90;;;;;;10229149;28;20659;-71
2023/06/09 00:11:17;;;;;;;10.67;9.57;;;16.40;99.90;;;;;;10223004;28;20250;-71
2023/06/09 00:16:18;;;;;;;10.70;9.60;;;16.40;99.90;;;;;;10221775;28;20253;-72
2023/06/09 00:21:19;;;;;;;10.87;9.77;;;16.50;99.90;;;;;;10223726;28;20262;-71
2023/06/09 00:26:20;;;;;;;10.87;9.87;;;16.50;99.90;;;;;;10219539;28;20230;-72
2023/06/09 00:31:20;;;;;;;10.43;9.43;;;16.40;99.90;;;;;;10224777;28;20216;-71
2023/06/09 00:36:21;;;;;;;10.30;9.33;;;16.40;99.90;;;;;;10215690;28;20242;-71
2023/06/09 00:41:21;;;;;;;10.47;9.50;;;16.40;99.90;;;;;;10220707;28;20326;-71
2023/06/09 00:46:23;;;;;;;11.20;9.80;;;16.30;99.90;;;;;;10223263;28;20251;-71
2023/06/09 00:51:24;;;;;;;10.63;9.43;;;16.20;99.90;;;;;;10226973;28;20226;-71
2023/06/09 00:56:26;;;;;;;10.37;9.23;;;16.20;99.90;;;;;;10219590;28;20235;-72
2023/06/09 01:01:28;;;;;;;10.53;9.43;;;16.10;99.90;;;;;;10222695;28;20729;-71
2023/06/09 01:06:38;;;;;;;11.17;10.03;;;16.00;99.90;;;;;;10214869;28;20232;-70
2023/06/09 01:11:57;;;;;;;11.37;10.37;;;15.90;99.90;;;;;;10228585;28;20315;-72
2023/06/09 01:17:08;;;;;;;11.60;10.43;;;15.80;99.90;;;;;;10214831;28;20238;-70
2023/06/09 01:22:35;;;;;;;15.93;11.77;;;15.90;99.90;;;;;;10221465;28;20531;-71
2023/06/09 01:27:39;;;;;;;12.27;11.10;;;15.80;99.90;;;;;;10227421;28;20220;-71
2023/06/09 01:32:41;;;;;;;13.57;12.37;;;15.70;99.90;;;;;;10225584;28;20247;-71
2023/06/09 01:37:42;;;;;;;13.07;11.77;;;15.70;99.90;;;;;;10223072;28;20237;-70
2023/06/09 01:42:42;;;;;;;13.23;12.07;;;15.70;99.90;;;;;;10227111;28;20235;-71
2023/06/09 01:47:43;;;;;;;12.53;11.37;;;15.60;99.90;;;;;;10228557;28;20314;-71
2023/06/09 01:53:09;;;;;;;12.07;10.90;;;15.60;99.90;;;;;;10242280;28;20293;-71
2023/06/09 01:58:17;;;;;;;11.67;10.63;;;15.60;99.90;;;;;;10227755;28;20761;-71
2023/06/09 02:03:22;;;;;;;11.37;10.37;;;15.50;99.90;;;;;;10226253;28;20306;-71
2023/06/09 02:08:23;;;;;;;12.23;10.93;;;15.50;99.90;;;;;;10224194;28;20275;-70
2023/06/09 02:13:24;;;;;;;14.30;11.67;;;15.40;99.90;;;;;;10224775;28;20311;-70
2023/06/09 02:18:24;;;;;;;15.07;11.23;;;15.50;99.90;;;;;;10230032;28;20227;-71
2023/06/09 02:23:25;;;;;;;12.93;11.73;;;15.60;99.90;;;;;;10224643;28;20229;-71
2023/06/09 02:28:26;;;;;;;12.63;11.47;;;15.50;99.90;;;;;;10231675;28;20983;-71
2023/06/09 02:33:26;;;;;;;12.73;11.50;;;15.60;99.90;;;;;;10223291;28;20855;-71
2023/06/09 02:38:27;;;;;;;13.13;11.73;;;15.60;99.90;;;;;;10227586;28;20335;-70
2023/06/09 02:43:27;;;;;;;12.33;11.23;;;15.60;99.90;;;;;;10230586;28;20227;-70
2023/06/09 02:48:28;;;;;;;13.30;12.07;;;15.60;99.90;;;;;;10228087;28;20294;-70
2023/06/09 02:53:29;;;;;;;13.30;12.00;;;15.60;99.90;;;;;;10221636;28;20220;-71
2023/06/09 02:58:30;;;;;;;13.17;11.93;;;15.50;99.90;;;;;;10217741;28;20650;-69
2023/06/09 03:03:30;;;;;;;13.40;12.10;;;15.40;99.90;;;;;;10224047;28;20694;-70
2023/06/09 03:08:31;;;;;;;13.40;12.10;;;15.40;99.90;;;;;;10228788;28;20309;-70
2023/06/09 03:13:31;;;;;;;13.33;12.03;;;15.40;99.90;;;;;;10227451;28;20399;-72
2023/06/09 03:18:32;;;;;;;13.83;12.43;;;15.40;99.90;;;;;;10229796;28;20239;-71
2023/06/09 03:23:33;;;;;;;15.10;13.70;;;15.30;99.90;;;;;;10225999;28;20231;-71
2023/06/09 03:28:33;;;;;;;15.17;13.73;;;15.30;99.90;;;;;;10229465;28;20277;-71
2023/06/09 03:33:34;;;;;;;13.13;11.77;;;15.30;99.90;;;;;;10238203;28;20223;-71
2023/06/09 03:38:34;;;;;;;11.80;10.23;;;15.30;99.90;;;;;;10233183;28;20235;-70
2023/06/09 03:43:35;;;;;;;11.03;10.07;;;15.30;99.90;;;;;;10230162;28;20601;-71
2023/06/09 03:48:36;;;;;;;13.30;9.73;;;15.40;99.90;;;;;;10220840;28;20254;-72
2023/06/09 03:53:36;;;;;;;10.93;9.83;;;15.40;99.90;;;;;;10231337;28;20241;-71
2023/06/09 03:58:37;;;;;;;11.00;10.00;;;15.50;99.90;;;;;;10227817;28;20224;-71
2023/06/09 04:03:38;;;;;;;10.80;9.80;;;15.60;99.90;;;;;;10233476;28;20662;-72
2023/06/09 04:08:38;;;;;;;12.83;10.20;;;15.60;99.90;;;;;;10224627;28;20222;-71
2023/06/09 04:13:39;;;;;;;10.37;9.37;;;15.70;99.90;;;;;;10230016;28;20222;-71
2023/06/09 04:18:40;;;;;;;11.97;8.77;;;15.60;99.90;;;;;;10219390;28;20322;-71
2023/06/09 04:23:40;;;;;;;10.60;9.60;;;15.70;99.90;;;;;;10222835;28;20313;-71
2023/06/09 04:28:41;;;;;;;10.37;9.30;;;15.80;99.90;;;;;;10217566;28;20231;-73
2023/06/09 04:33:45;;;;;;;10.20;9.20;;;16.00;99.90;;;;;;10224468;28;20241;-71
2023/06/09 04:38:47;;;;;;;12.53;9.13;;;16.50;99.90;;;;;;10225115;28;20234;-71
2023/06/09 04:43:49;;;;;;;10.43;8.47;;;16.80;99.90;;;;;;10224263;28;20321;-71
2023/06/09 04:48:51;;;;;;;12.23;9.03;;;16.80;99.90;;;;;;10225535;28;20230;-72
2023/06/09 04:53:53;;;;;;;9.57;8.67;;;16.70;99.90;;;;;;10230466;28;20214;-72
2023/06/09 04:58:54;;;;;;;11.37;9.07;;;16.70;99.90;;;;;;10223745;28;20220;-71
2023/06/09 05:03:55;;;;;;;9.03;8.13;;;16.70;99.90;;;;;;10217345;28;20288;-71
2023/06/09 05:08:57;;;;;;;9.77;8.20;;;18.40;99.90;;;;;;10214833;28;20256;-71
2023/06/09 05:13:57;;;;;;;10.90;8.77;;;19.90;99.90;;;;;;10215051;28;20227;-71
2023/06/09 05:18:58;;;;;;;9.13;8.20;;;21.20;99.90;;;;;;10222581;28;20238;-72
2023/06/09 05:23:58;;;;;;;8.33;7.53;;;21.90;99.90;;;;;;10235886;28;20262;-71
2023/06/09 05:28:59;;;;;;;8.47;7.23;;;22.50;99.90;;;;;;10236327;28;20226;-71
2023/06/09 05:34:00;;;;;;;8.03;6.77;;;23.20;99.90;;;;;;10221725;28;20235;-71
2023/06/09 05:39:01;;;;;;;8.13;7.33;;;23.70;99.90;;;;;;10236258;28;20223;-72
2023/06/09 05:44:01;;;;;;;7.90;7.10;;;23.70;99.90;;;;;;10236060;28;20236;-72
2023/06/09 05:49:02;;;;;;;7.77;6.97;;;24.30;99.90;;;;;;10233470;28;20214;-71
2023/06/09 05:54:03;;;;;;;8.00;7.20;;;24.70;99.90;;;;;;10221642;28;20238;-72
2023/06/09 05:59:05;;;;;;;9.90;6.40;;;24.80;99.90;;;;;;10241706;28;20219;-71
2023/06/09 06:04:06;;;;;;;6.60;6.00;;;25.20;99.90;;;;;;10233707;28;20226;-73
2023/06/09 06:09:09;;;;;;;8.80;6.33;;;26.00;99.90;;;;;;10228884;28;20231;-72
2023/06/09 06:14:10;;;;;;;8.57;6.20;;;26.50;99.90;;;;;;10222346;28;20228;-73
2023/06/09 06:19:11;;;;;;;8.80;6.00;;;27.20;98.30;;;;;;10226667;28;20223;-71
2023/06/09 06:24:12;;;;;;;8.03;6.30;;;28.00;95.40;;;;;;10222432;28;20224;-72
2023/06/09 06:29:12;;;;;;;6.57;5.97;;;29.00;92.60;;;;;;10225891;28;20628;-73
2023/06/09 06:34:13;;;;;;;8.23;5.57;;;29.50;89.60;;;;;;10229793;28;20218;-73
2023/06/09 06:39:14;;;;;;;7.43;6.17;;;29.50;86.30;;;;;;10230828;28;20796;-73
2023/06/09 06:44:14;;;;;;;5.87;5.27;;;30.00;81.00;;;;;;10222381;28;20259;-73
2023/06/09 06:49:16;;;;;;;6.50;5.50;;;29.30;83.00;;;;;;10232158;28;20270;-73
2023/06/09 06:54:17;;;;;;;5.60;5.10;;;29.10;81.20;;;;;;10227670;28;22087;-73
2023/06/09 06:59:18;;;;;;;7.47;5.50;;;29.80;80.60;;;;;;10219605;28;20276;-73
2023/06/09 07:04:18;;;;;;;8.37;5.70;;;30.10;76.30;;;;;;10230734;28;20322;-73
2023/06/09 07:09:19;;;;;;;8.50;5.77;;;29.90;76.40;;;;;;10220454;28;20706;-73
2023/06/09 07:14:19;;;;;;;5.67;5.03;;;29.90;76.10;;;;;;10223598;28;20239;-72
2023/06/09 07:19:20;;;;;;;7.23;5.50;;;30.10;73.60;;;;;;10233035;28;20224;-72
2023/06/09 07:24:20;;;;;;;5.80;5.20;;;30.20;72.10;;;;;;10226641;28;20334;-72
2023/06/09 07:29:21;;;;;;;7.37;5.40;;;30.50;72.80;;;;;;10221688;28;20219;-72
2023/06/09 07:34:27;;;;;;;5.37;4.97;;;30.60;70.70;;;;;;10230935;28;20930;-72
2023/06/09 07:39:27;;;;;;;5.90;5.30;;;30.10;70.50;;;;;;10228762;28;20297;-73
2023/06/09 07:44:28;;;;;;;7.83;5.43;;;30.60;68.40;;;;;;10221052;28;20238;-72
2023/06/09 07:49:29;;;;;;;5.47;4.97;;;30.80;69.60;;;;;;10226350;28;20222;-72
2023/06/09 07:54:29;;;;;;;6.67;4.77;;;30.50;68.60;;;;;;10231153;28;20324;-72
2023/06/09 07:59:31;;;;;;;6.97;4.50;;;30.40;69.40;;;;;;10227315;28;20243;-72
2023/06/09 08:04:32;;;;;;;5.37;4.70;;;30.90;68.10;;;;;;10221918;28;20922;-72
2023/06/09 08:09:33;;;;;;;5.20;4.70;;;31.30;66.90;;;;;;10228380;28;20220;-73
2023/06/09 08:14:33;;;;;;;4.77;4.37;;;31.30;65.80;;;;;;10221793;28;20231;-72
2023/06/09 08:19:34;;;;;;;5.70;4.60;;;32.10;65.20;;;;;;10225445;28;20219;-72
2023/06/09 08:24:36;;;;;;;4.97;4.10;;;32.10;63.50;;;;;;10220817;28;20298;-72
2023/06/09 08:29:37;;;;;;;7.80;4.10;;;33.70;57.20;;;;;;10221121;28;20242;-72
2023/06/09 08:34:37;;;;;;;6.00;3.50;;;34.20;56.90;;;;;;10218952;28;20231;-73
2023/06/09 08:39:38;;;;;;;4.30;3.50;;;34.10;55.00;;;;;;10216940;28;20626;-73
2023/06/09 08:44:40;;;;;;;3.60;3.30;;;34.10;53.50;;;;;;10226974;28;20726;-73
2023/06/09 08:49:41;;;;;;;3.50;3.00;;;34.80;53.20;;;;;;10225118;28;20220;-73
2023/06/09 08:54:42;;;;;;;4.33;3.50;;;33.80;51.30;;;;;;10224837;28;20216;-72
2023/06/09 08:59:47;;;;;;;4.10;3.70;;;33.20;52.30;;;;;;10218565;28;20220;-72
2023/06/09 09:04:49;;;;;;;6.20;3.50;;;33.30;52.80;;;;;;10222180;28;20228;-73
2023/06/09 09:09:49;;;;;;;5.27;3.67;;;33.50;52.50;;;;;;10216774;28;20228;-72
2023/06/09 09:14:50;;;;;;;5.00;3.13;;;33.90;50.70;;;;;;10226169;28;20226;-73
2023/06/09 09:19:51;;;;;;;6.63;3.20;;;34.20;49.60;;;;;;10216425;28;20238;-72
2023/06/09 09:24:53;;;;;;;3.77;3.40;;;34.20;49.10;;;;;;10222199;28;20227;-72
2023/06/09 09:29:53;;;;;;;3.63;3.27;;;34.00;49.30;;;;;;10222368;28;20220;-73
2023/06/09 09:34:54;;;;;;;3.97;3.20;;;36.40;46.60;;;;;;10229599;28;20219;-73
2023/06/09 09:39:54;;;;;;;3.40;3.10;;;35.90;45.60;;;;;;10217424;28;20243;-72
2023/06/09 09:45:04;;;;;;;3.80;3.03;;;36.80;43.90;;;;;;10227962;28;20690;-73
2023/06/09 09:50:08;;;;;;;5.00;3.33;;;34.90;45.50;;;;;;10223396;28;20242;-73
2023/06/09 09:55:11;;;;;;;4.37;3.20;;;35.30;46.50;;;;;;10216576;28;20212;-72
2023/06/09 10:00:13;;;;;;;3.30;3.00;;;35.10;45.60;;;;;;10227624;28;20188;-73
2023/06/09 10:05:16;;;;;;;10.83;4.43;;;35.10;45.50;;;;;;10216749;28;20216;-73
2023/06/09 10:10:17;;;;;;;7.57;3.30;;;36.40;44.80;;;;;;10226195;28;20350;-72
2023/06/09 10:15:20;;;;;;;6.77;3.33;;;36.90;43.30;;;;;;10226992;28;20335;-72
2023/06/09 10:20:21;;;;;;;7.40;3.60;;;35.90;43.30;;;;;;10223737;28;20192;-73
2023/06/09 10:25:24;;;;;;;5.57;3.00;;;35.70;43.70;;;;;;10222947;28;20554;-72
2023/06/09 10:30:25;;;;;;;10.03;3.50;;;36.50;43.40;;;;;;10224645;28;20702;-73
2023/06/09 10:35:31;;;;;;;6.03;3.03;;;36.40;43.40;;;;;;10230934;28;20235;-73
2023/06/09 10:40:46;;;;;;;4.27;3.07;;;37.20;41.00;;;;;;10222838;28;20372;-72
2023/06/09 10:45:57;;;;;;;3.10;2.87;;;35.20;42.20;;;;;;10221225;28;20223;-73
2023/06/09 10:51:32;;;;;;;3.23;2.93;;;34.80;42.60;;;;;;10233935;28;20220;-71
2023/06/09 10:56:40;;;;;;;4.87;2.80;;;34.50;43.20;;;;;;10231433;28;20839;-73
2023/06/09 11:02:10;;;;;;;3.33;3.07;;;35.60;40.80;;;;;;10225597;28;20226;-73
2023/06/09 11:07:26;;;;;;;3.77;3.47;;;34.60;41.40;;;;;;10235665;28;20310;-72
2023/06/09 11:12:36;;;;;;;4.60;3.50;;;33.40;41.80;;;;;;10227437;28;20234;-72
2023/06/09 11:17:41;;;;;;;4.87;3.33;;;34.30;41.90;;;;;;10226053;28;20232;-72
2023/06/09 11:22:41;;;;;;;4.97;3.80;;;33.80;41.30;;;;;;10227362;28;20220;-71
2023/06/09 11:27:54;;;;;;;4.37;3.77;;;33.70;43.70;;;;;;10226640;28;20750;-70
2023/06/09 11:32:59;;;;;;;3.83;3.53;;;34.00;42.80;;;;;;10227286;28;20219;-71
2023/06/09 11:38:10;;;;;;;4.30;3.90;;;33.70;43.00;;;;;;10218754;28;20224;-71
2023/06/09 11:43:11;;;;;;;4.40;4.00;;;31.30;46.90;;;;;;10232695;28;20254;-70
2023/06/09 11:48:18;;;;;;;3.87;3.47;;;29.70;49.30;;;;;;10231705;28;20293;-71
2023/06/09 11:53:26;;;;;;;5.67;4.00;;;29.00;50.80;;;;;;10232770;28;20231;-71
2023/06/09 11:58:26;;;;;;;6.23;3.67;;;28.90;52.40;;;;;;10221130;28;20263;-71
2023/06/09 12:03:28;;;;;;;5.37;3.63;;;29.20;52.20;;;;;;10221090;28;20220;-72
2023/06/09 12:08:29;;;;;;;5.93;4.47;;;29.50;52.80;;;;;;10227273;28;20219;-72
2023/06/09 12:13:43;;;;;;;5.63;3.97;;;29.00;51.80;;;;;;10231928;28;20246;-72
2023/06/09 12:18:44;;;;;;;6.90;3.90;;;28.70;52.70;;;;;;10232118;28;20235;-72
2023/06/09 12:23:53;;;;;;;7.00;3.90;;;28.80;52.40;;;;;;10231285;28;20602;-72
2023/06/09 12:28:53;;;;;;;7.07;4.03;;;28.60;52.90;;;;;;10229614;28;20227;-73
2023/06/09 12:33:56;;;;;;;6.67;3.87;;;28.70;53.00;;;;;;10232553;28;20247;-72
2023/06/09 12:38:57;;;;;;;8.10;4.37;;;28.50;52.70;;;;;;10223960;28;20247;-72
2023/06/09 12:43:59;;;;;;;7.40;4.03;;;28.70;53.00;;;;;;10225915;28;20230;-72
2023/06/09 12:49:08;;;;;;;6.03;3.70;;;28.70;52.00;;;;;;10223418;28;20234;-72
2023/06/09 12:54:11;;;;;;;5.90;4.20;;;28.30;53.50;;;;;;10224241;28;20236;-72
2023/06/09 12:59:11;;;;;;;4.23;3.80;;;28.50;51.80;;;;;;10221889;28;20233;-71
2023/06/09 13:04:12;;;;;;;7.67;4.40;;;28.50;52.40;;;;;;10218225;28;20311;-71
2023/06/09 13:09:12;;;;;;;5.57;4.10;;;28.50;52.40;;;;;;10224801;28;20683;-71
2023/06/09 13:14:13;;;;;;;8.27;3.57;;;28.50;51.00;;;;;;10217879;28;20228;-71
2023/06/09 13:19:13;;;;;;;4.20;3.77;;;28.50;51.00;;;;;;10221866;28;20227;-72
2023/06/09 13:24:14;;;;;;;5.30;3.57;;;28.50;50.30;;;;;;10223650;28;20226;-71
2023/06/09 13:29:15;;;;;;;7.23;4.20;;;28.30;49.30;;;;;;10217884;28;20224;-72
2023/06/09 13:34:15;;;;;;;5.57;3.93;;;28.30;51.90;;;;;;10221358;28;20260;-72
2023/06/09 13:39:16;;;;;;;4.20;3.80;;;28.20;51.60;;;;;;10229492;28;20289;-72
2023/06/09 13:44:16;;;;;;;4.83;3.70;;;28.50;51.90;;;;;;10234206;28;20226;-73
2023/06/09 13:49:17;;;;;;;4.30;3.90;;;28.50;50.80;;;;;;10235984;28;20774;-72
2023/06/09 13:54:17;;;;;;;5.30;3.90;;;28.50;49.80;;;;;;10228997;28;20260;-72
2023/06/09 13:59:18;;;;;;;5.67;4.20;;;28.40;50.50;;;;;;10232210;28;20307;-72
2023/06/09 14:04:18;;;;;;;4.07;3.67;;;28.60;50.90;;;;;;10234169;28;20729;-72
2023/06/09 14:09:19;;;;;;;6.67;3.77;;;28.50;50.70;;;;;;10223672;28;20219;-72
2023/06/09 14:14:19;;;;;;;3.90;3.50;;;28.20;49.60;;;;;;10227793;28;20233;-72
2023/06/09 14:19:21;;;;;;;6.33;3.70;;;28.40;49.30;;;;;;10228444;28;20234;-72
2023/06/09 14:24:21;;;;;;;6.33;3.90;;;28.40;49.30;;;;;;10225324;28;20658;-72
2023/06/09 14:29:22;;;;;;;4.60;3.67;;;28.40;48.50;;;;;;10223759;28;20281;-71
2023/06/09 14:34:23;;;;;;;4.70;3.93;;;28.30;48.30;;;;;;10230812;28;20216;-72
2023/06/09 14:39:23;;;;;;;4.10;3.67;;;28.10;48.10;;;;;;10222909;28;20235;-72
2023/06/09 14:44:24;;;;;;;6.37;3.87;;;28.20;47.20;;;;;;10231035;28;20252;-71
2023/06/09 14:49:24;;;;;;;5.17;4.10;;;28.30;48.80;;;;;;10227795;28;20576;-72
2023/06/09 14:54:25;;;;;;;4.37;3.97;;;28.30;47.80;;;;;;10229524;28;20306;-71
2023/06/09 14:59:25;;;;;;;5.33;4.00;;;28.40;48.40;;;;;;10231535;28;20252;-72
2023/06/09 15:04:26;;;;;;;4.47;4.07;;;28.50;49.20;;;;;;10223200;28;20215;-71
2023/06/09 15:09:29;;;;;;;5.73;4.30;;;28.50;48.50;;;;;;10222957;28;20231;-72
2023/06/09 15:14:31;;;;;;;7.07;4.27;;;28.30;48.30;;;;;;10231170;28;20215;-72
2023/06/09 15:19:32;;;;;;;4.93;4.00;;;28.30;48.50;;;;;;10227112;28;20337;-72
2023/06/09 15:24:33;;;;;;;7.60;4.53;;;28.30;48.30;;;;;;10221689;28;20721;-73
2023/06/09 15:29:33;;;;;;;4.80;4.00;;;28.40;48.40;;;;;;10222634;28;20218;-72
2023/06/09 15:34:34;;;;;;;6.33;4.10;;;28.30;49.30;;;;;;10226598;28;20713;-73
2023/06/09 15:39:34;;;;;;;5.67;4.00;;;28.30;49.10;;;;;;10222337;28;20227;-72
2023/06/09 15:44:35;;;;;;;7.57;4.20;;;28.50;49.70;;;;;;10229090;28;20223;-72
2023/06/09 15:49:35;;;;;;;5.17;4.10;;;28.70;49.70;;;;;;10232147;28;20219;-72
2023/06/09 15:54:36;;;;;;;4.60;4.20;;;28.80;49.50;;;;;;10220985;28;20307;-72
2023/06/09 15:59:36;;;;;;;7.70;4.30;;;28.90;49.70;;;;;;10222567;28;20308;-72
2023/06/09 16:04:38;;;;;;;5.00;4.60;;;28.80;51.00;;;;;;10228183;28;20220;-72
2023/06/09 16:09:38;;;;;;;7.90;4.77;;;28.30;52.00;;;;;;10226127;28;20207;-72
2023/06/09 16:14:39;;;;;;;6.50;4.43;;;28.10;52.70;;;;;;10225907;28;20227;-72
2023/06/09 16:19:40;;;;;;;5.07;4.63;;;27.50;53.40;;;;;;10218915;28;20223;-71
2023/06/09 16:24:40;;;;;;;5.60;4.57;;;27.30;54.30;;;;;;10225922;28;20231;-71
2023/06/09 16:29:41;;;;;;;5.83;4.80;;;27.10;54.90;;;;;;10230290;28;20279;-72
2023/06/09 16:34:42;;;;;;;9.77;4.63;;;26.90;55.10;;;;;;10219716;28;20695;-73
2023/06/09 16:39:48;;;;;;;4.80;4.40;;;26.80;54.60;;;;;;10225380;28;20216;-72
2023/06/09 16:44:49;;;;;;;8.73;4.63;;;26.90;54.40;;;;;;10229580;28;20239;-72
2023/06/09 16:49:51;;;;;;;8.37;4.87;;;26.80;54.50;;;;;;10217691;28;20642;-71
2023/06/09 16:54:51;;;;;;;7.27;5.07;;;26.90;53.90;;;;;;10221728;28;20265;-72
2023/06/09 16:59:52;;;;;;;7.57;4.50;;;26.90;53.50;;;;;;10222446;28;20214;-73
2023/06/09 17:04:52;;;;;;;5.27;4.43;;;26.90;53.30;;;;;;10237489;28;20230;-72
2023/06/09 17:09:53;;;;;;;10.20;5.07;;;26.90;53.50;;;;;;10224768;28;20231;-71
2023/06/09 17:14:53;;;;;;;6.10;5.13;;;26.90;53.90;;;;;;10215569;28;20706;-72
2023/06/09 17:19:56;;;;;;;7.10;5.07;;;26.90;54.70;;;;;;10230444;28;20228;-72
2023/06/09 17:24:57;;;;;;;6.20;5.07;;;26.90;54.20;;;;;;10230831;28;20225;-71
2023/06/09 17:29:57;;;;;;;10.40;5.27;;;26.80;55.00;;;;;;10222440;28;20238;-72
2023/06/09 17:34:59;;;;;;;5.60;5.07;;;26.60;55.40;;;;;;10243912;28;20222;-72
2023/06/09 17:39:59;;;;;;;6.57;5.20;;;26.60;56.00;;;;;;10232974;28;20226;-73
2023/06/09 17:45:00;;;;;;;9.20;5.10;;;26.60;56.30;;;;;;10228966;28;20625;-72
2023/06/09 17:50:00;;;;;;;5.80;5.03;;;26.60;56.40;;;;;;10239594;28;20303;-73
2023/06/09 17:55:03;;;;;;;10.00;5.33;;;26.60;56.30;;;;;;10235653;28;20239;-72
2023/06/09 18:00:05;;;;;;;8.63;4.93;;;26.40;56.80;;;;;;10227426;28;20252;-71
2023/06/09 18:05:06;;;;;;;6.83;4.93;;;26.30;56.70;;;;;;10226374;28;20302;-72
2023/06/09 18:10:07;;;;;;;7.23;5.40;;;26.20;56.90;;;;;;10235091;28;21118;-73
2023/06/09 18:15:08;;;;;;;6.27;5.07;;;26.10;57.00;;;;;;10227460;28;20215;-72
2023/06/09 18:20:09;;;;;;;7.80;5.10;;;26.00;57.70;;;;;;10222212;28;20878;-72
2023/06/09 18:25:09;;;;;;;6.80;5.60;;;25.90;58.40;;;;;;10232842;28;20188;-72
2023/06/09 18:30:10;;;;;;;8.17;5.77;;;25.90;59.50;;;;;;10220818;28;20195;-71
2023/06/09 18:35:14;;;;;;;9.00;5.83;;;25.70;59.90;;;;;;10228038;28;20243;-72
2023/06/09 18:40:14;;;;;;;6.73;5.60;;;25.70;61.40;;;;;;10231251;28;20272;-72
2023/06/09 18:45:15;;;;;;;9.37;5.67;;;25.60;62.00;;;;;;10230301;28;20318;-72
2023/06/09 18:50:16;;;;;;;5.53;5.00;;;25.40;62.80;;;;;;10228272;28;20200;-72
2023/06/09 18:55:17;;;;;;;7.27;5.70;;;25.30;63.70;;;;;;10225652;28;20859;-73
2023/06/09 19:00:17;;;;;;;7.40;6.33;;;25.20;63.60;;;;;;10225648;28;20191;-73
2023/06/09 19:05:18;;;;;;;8.13;5.97;;;25.10;64.40;;;;;;10238212;28;20633;-72
2023/06/09 19:10:18;;;;;;;9.37;6.73;;;25.00;65.40;;;;;;10230488;28;20241;-72
2023/06/09 19:15:19;;;;;;;7.60;6.83;;;24.90;66.00;;;;;;10224870;28;20216;-73
2023/06/09 19:20:21;;;;;;;9.80;6.57;;;24.80;67.00;;;;;;10226305;28;20325;-72
2023/06/09 19:25:22;;;;;;;7.20;5.93;;;24.70;67.20;;;;;;10220855;28;20286;-74
2023/06/09 19:30:22;;;;;;;7.97;6.30;;;24.60;67.60;;;;;;10234630;28;20592;-71
2023/06/09 19:35:23;;;;;;;9.80;6.80;;;24.50;68.40;;;;;;10221444;28;20290;-72
2023/06/09 19:40:24;;;;;;;8.47;6.77;;;24.30;69.60;;;;;;10222807;28;20251;-72
2023/06/09 19:45:28;;;;;;;9.40;6.60;;;24.20;70.00;;;;;;10228003;28;20228;-72
2023/06/09 19:50:36;;;;;;;10.57;6.60;;;24.00;70.60;;;;;;10228342;28;20216;-72
2023/06/09 19:55:37;;;;;;;7.87;7.07;;;23.90;71.10;;;;;;10229825;28;20231;-73
2023/06/09 20:00:37;;;;;;;8.93;7.40;;;23.80;72.20;;;;;;10227181;28;20230;-71
2023/06/09 20:05:38;;;;;;;10.43;6.43;;;23.70;72.80;;;;;;10226394;28;20211;-73
2023/06/09 20:10:39;;;;;;;7.87;6.60;;;23.60;73.60;;;;;;10224295;28;20236;-72
2023/06/09 20:15:39;;;;;;;10.00;6.20;;;23.60;73.40;;;;;;10218957;28;20315;-73
2023/06/09 20:20:41;;;;;;;8.57;6.43;;;23.50;73.60;;;;;;10221956;28;20218;-72
2023/06/09 20:25:42;;;;;;;7.40;6.60;;;23.50;73.40;;;;;;10218454;28;20704;-71
2023/06/09 20:30:43;;;;;;;7.30;6.43;;;23.40;73.20;;;;;;10227976;28;20227;-72
2023/06/09 20:35:43;;;;;;;8.00;7.03;;;23.40;73.10;;;;;;10217526;28;20257;-72
2023/06/09 20:40:44;;;;;;;10.37;6.73;;;23.40;73.20;;;;;;10235894;28;20242;-73
2023/06/09 20:45:46;;;;;;;9.57;8.27;;;23.40;72.20;;;;;;10215040;28;20243;-73
2023/06/09 20:50:49;;;;;;;8.67;7.83;;;23.40;72.90;;;;;;10217811;28;20691;-72
2023/06/09 20:55:51;;;;;;;10.17;8.20;;;23.40;73.70;;;;;;10224447;28;20646;-73
2023/06/09 21:00:51;;;;;;;7.77;7.03;;;23.30;73.00;;;;;;10229699;28;20219;-72
2023/06/09 21:05:52;;;;;;;20.00;7.63;;;23.20;71.50;;;;;;10222126;28;20742;-71
2023/06/09 21:10:52;;;;;;;8.20;6.80;;;23.20;72.30;;;;;;10228100;28;20709;-71
2023/06/09 21:15:56;;;;;;;9.73;7.00;;;23.10;71.50;;;;;;10222168;28;20354;-71
2023/06/09 21:20:57;;;;;;;8.50;6.60;;;23.00;71.50;;;;;;10221336;28;20306;-71
2023/06/09 21:25:57;;;;;;;9.23;6.73;;;22.90;71.70;;;;;;10221460;28;20228;-71
2023/06/09 21:31:00;;;;;;;8.10;6.47;;;22.80;72.00;;;;;;10221697;28;20238;-71
2023/06/09 21:36:01;;;;;;;7.10;6.37;;;22.70;72.10;;;;;;10221530;28;20227;-71
2023/06/09 21:41:02;;;;;;;8.03;6.60;;;22.60;72.40;;;;;;10213339;28;20286;-71
2023/06/09 21:46:02;;;;;;;9.47;6.37;;;22.50;73.20;;;;;;10219986;28;20743;-71
2023/06/09 21:51:03;;;;;;;7.30;6.60;;;22.40;73.50;;;;;;10220447;28;20223;-71
2023/06/09 21:56:04;;;;;;;7.67;6.07;;;22.20;73.70;;;;;;10221107;28;20235;-71
2023/06/09 22:01:05;;;;;;;7.00;5.80;;;22.10;73.90;;;;;;10226029;28;20276;-70
2023/06/09 22:06:06;;;;;;;7.07;6.37;;;22.00;74.50;;;;;;10221018;28;20254;-70
2023/06/09 22:11:06;;;;;;;7.23;6.63;;;21.90;75.20;;;;;;10227283;28;20217;-71
2023/06/09 22:16:07;;;;;;;7.63;5.77;;;21.80;75.80;;;;;;10229255;28;20242;-71
2023/06/09 22:21:08;;;;;;;8.00;6.70;;;21.70;75.90;;;;;;10220365;28;20219;-71
2023/06/09 22:26:09;;;;;;;9.20;6.13;;;21.60;76.50;;;;;;10232816;28;20230;-70
2023/06/09 22:31:09;;;;;;;8.60;6.90;;;21.40;77.70;;;;;;10219543;28;20229;-70
2023/06/09 22:36:10;;;;;;;8.67;6.70;;;21.30;77.70;;;;;;10224147;28;20219;-71
2023/06/09 22:41:10;;;;;;;7.00;6.30;;;21.30;77.30;;;;;;10220431;28;20587;-71
2023/06/09 22:46:11;;;;;;;7.63;5.87;;;21.30;77.50;;;;;;10227093;28;20233;-71
2023/06/09 22:51:11;;;;;;;8.27;5.60;;;21.20;76.90;;;;;;10225305;28;20211;-72
2023/06/09 22:56:12;;;;;;;7.97;6.47;;;21.30;75.40;;;;;;10226524;28;20236;-71
2023/06/09 23:01:13;;;;;;;6.63;5.90;;;21.30;76.60;;;;;;10231579;28;20215;-71
2023/06/09 23:06:14;;;;;;;7.17;6.47;;;21.20;76.50;;;;;;10226582;28;20226;-71
2023/06/09 23:11:15;;;;;;;6.87;6.07;;;21.10;77.00;;;;;;10225287;28;20698;-71
2023/06/09 23:16:18;;;;;;;7.00;6.30;;;21.00;77.90;;;;;;10225011;28;20315;-70
2023/06/09 23:21:21;;;;;;;9.10;6.70;;;20.90;78.50;;;;;;10229641;28;20231;-72
2023/06/09 23:26:22;;;;;;;9.70;6.63;;;20.80;79.00;;;;;;10227115;28;20878;-71
2023/06/09 23:31:26;;;;;;;7.67;6.70;;;20.70;79.60;;;;;;10229364;28;20219;-71
2023/06/09 23:36:29;;;;;;;7.27;6.50;;;20.60;80.10;;;;;;10221371;28;20322;-72
2023/06/09 23:41:30;;;;;;;8.43;6.47;;;20.50;80.70;;;;;;10228424;28;20235;-72
2023/06/09 23:46:33;;;;;;;7.33;6.63;;;20.40;81.20;;;;;;10231357;28;20326;-71
2023/06/09 23:51:34;;;;;;;7.57;6.70;;;20.30;81.20;;;;;;10224319;28;20319;-71
2023/06/09 23:56:35;;;;;;;8.77;6.80;;;20.30;81.50;;;;;;10224546;28;20326;-72
